Even Keel — WDF2552 — position and weather

sailwx.info

Track history (hours):
 
Tides and Currents Weather Stations Pressure Air Temp Water Temp Dewpoint Dewpoint Depression Visibility Wind Speed Wind Dir Waves Ship Positions

Even Keel

Owner: Meloy, William M, Livermore, CA. More information available from US FCC via Universal Licensing System and Coast Guard Vessel Documentation Center.

Last reported at 2018-May-06 21:56 UTC. Time now 2018-May-22 16:04 UTC.
Position N 37°47' W 122°16'.
Warning: this ship's position is 15 days out of date.

Length 10 m.

Type: Sailing vessel. MMSI: 367429210.

Date/timePositionNaut miles runAvg speedWind from/ knotsBaromVisibWave heightAir tempDewpointWater temp
2018-May-06 21:56N 37°47' W 122°16'1 2.4
2018-May-06 21:25N 37°47' W 122°15'2 3.8
2018-May-06 21:00N 37°47' W 122°16'2 4.5
2018-May-06 20:30N 37°48' W 122°19'2 4.4
2018-May-06 20:00N 37°49' W 122°21'0 0.5
2018-May-06 19:30N 37°49' W 122°22'2 3.2
2018-May-06 19:00N 37°48' W 122°20'2 4.5
2018-May-06 18:30N 37°48' W 122°17'1 2.2
2018-May-06 17:58N 37°47' W 122°16'0 0.0
2018-May-06 00:49N 37°47' W 122°16'  
Track history (hours):
 
Tides and Currents Weather Stations Pressure Air Temp Water Temp Dewpoint Dewpoint Depression Visibility Wind Speed Wind Dir Waves Ship Positions

Even Keel

Owner: Meloy, William M, Livermore, CA. More information available from US FCC via Universal Licensing System and Coast Guard Vessel Documentation Center.

Last reported at 2018-May-06 21:56 UTC. Time now 2018-May-22 16:04 UTC.
Position N 37°47' W 122°16'.
Warning: this ship's position is 15 days out of date.

Length 10 m.

Type: Sailing vessel. MMSI: 367429210.

Date/timePositionNaut miles runAvg speedWind from/ knotsBaromVisibWave heightAir tempDewpointWater temp
2018-May-06 21:56N 37°47' W 122°16'1 2.4
2018-May-06 21:25N 37°47' W 122°15'2 3.8
2018-May-06 21:00N 37°47' W 122°16'2 4.5
2018-May-06 20:30N 37°48' W 122°19'2 4.4
2018-May-06 20:00N 37°49' W 122°21'0 0.5
2018-May-06 19:30N 37°49' W 122°22'2 3.2
2018-May-06 19:00N 37°48' W 122°20'2 4.5
2018-May-06 18:30N 37°48' W 122°17'1 2.2
2018-May-06 17:58N 37°47' W 122°16'0 0.0
2018-May-06 00:49N 37°47' W 122°16'  

Dump ship's entire track history